Time;durP1;ratioP1;P1;durP2;ratioP2;P2;SDS_P1;SDS_P2;PMS_P1;PMS_P2;Temp;Humidity;BMP_temperature;BMP_pressure;BME280_temperature;BME280_humidity;BME280_pressure;Samples;Min_cycle;Max_cycle;Signal;HPM_P1;HPM_P2
2022/04/08 00:00:04;;;;;;;7.93;2.90;;;;;;;5.22;100.00;98954.84;676810;29;1526;-84
2022/04/08 00:00:26;;;;;;;9.85;3.05;;;;;;;5.22;100.00;98938.41;678849;28;832;-81
2022/04/08 00:00:46;;;;;;;8.40;2.85;;;;;;;5.23;100.00;98934.94;676685;29;1398;-81
2022/04/08 00:01:07;;;;;;;6.90;2.65;;;;;;;5.26;100.00;98945.28;676646;29;1664;-82
2022/04/08 00:01:27;;;;;;;8.70;2.67;;;;;;;5.34;100.00;98938.28;675197;29;4498;-82
2022/04/08 00:01:48;;;;;;;7.47;2.55;;;;;;;5.31;100.00;98940.91;678416;28;1329;-82
2022/04/08 00:02:08;;;;;;;8.60;2.70;;;;;;;5.41;100.00;98959.81;680406;28;1331;-81
2022/04/08 00:02:29;;;;;;;12.35;3.10;;;;;;;5.36;100.00;98940.84;672487;29;2271;-82
2022/04/08 00:02:50;;;;;;;7.90;2.97;;;;;;;5.37;100.00;98935.69;678350;28;1267;-82
2022/04/08 00:03:10;;;;;;;6.68;2.55;;;;;;;5.42;100.00;98959.78;681255;28;1149;-81
2022/04/08 00:03:31;;;;;;;7.20;2.78;;;;;;;5.50;100.00;98964.00;681876;28;1286;-82
2022/04/08 00:03:52;;;;;;;8.73;2.90;;;;;;;5.48;100.00;98947.63;679864;28;1155;-82
2022/04/08 00:04:15;;;;;;;9.18;2.97;;;;;;;5.42;100.00;98962.38;672977;29;1584;-82
2022/04/08 00:04:36;;;;;;;8.40;3.10;;;;;;;5.49;100.00;98986.50;673847;29;4356;-81
2022/04/08 00:04:57;;;;;;;9.60;3.05;;;;;;;5.45;100.00;98940.75;676355;29;1995;-81
2022/04/08 00:05:17;;;;;;;9.50;2.90;;;;;;;5.46;100.00;98976.16;680106;28;1423;-82
2022/04/08 00:05:38;;;;;;;10.03;2.90;;;;;;;5.39;100.00;98944.28;680448;28;1108;-81
2022/04/08 00:05:58;;;;;;;9.63;3.00;;;;;;;5.37;100.00;98955.53;682098;28;1217;-82
2022/04/08 00:06:20;;;;;;;8.00;3.00;;;;;;;5.35;100.00;98958.13;673330;29;1585;-82
2022/04/08 00:06:41;;;;;;;8.15;3.30;;;;;;;5.45;100.00;98946.81;676058;29;1589;-82
2022/04/08 00:07:01;;;;;;;7.53;3.00;;;;;;;5.50;100.00;98951.06;676261;29;1423;-81
2022/04/08 00:07:25;;;;;;;7.55;2.78;;;;;;;5.49;100.00;98967.50;676308;29;4373;-82
2022/04/08 00:07:45;;;;;;;6.68;2.60;;;;;;;5.59;100.00;98980.34;677137;29;1515;-82
2022/04/08 00:08:06;;;;;;;5.43;2.45;;;;;;;5.52;100.00;98962.28;677017;29;1509;-83
2022/04/08 00:08:27;;;;;;;5.78;2.38;;;;;;;5.48;100.00;98961.44;677017;29;1482;-80
2022/04/08 00:08:48;;;;;;;6.50;2.47;;;;;;;5.51;100.00;98939.81;675290;29;1735;-81
2022/04/08 00:09:08;;;;;;;6.18;2.60;;;;;;;5.49;100.00;98951.97;675198;29;3365;-81
2022/04/08 00:09:29;;;;;;;6.27;2.77;;;;;;;5.50;100.00;98956.25;675835;29;1286;-81
2022/04/08 00:09:49;;;;;;;6.68;2.80;;;;;;;5.46;100.00;99000.34;676323;28;1205;-80
2022/04/08 00:10:09;;;;;;;6.73;2.63;;;;;;;5.53;100.00;98956.22;680564;28;1179;-82
2022/04/08 00:10:30;;;;;;;5.63;2.40;;;;;;;5.48;100.00;98953.66;679160;28;4356;-81
2022/04/08 00:10:50;;;;;;;6.57;2.67;;;;;;;5.48;100.00;98974.41;675169;28;1325;-83
2022/04/08 00:11:15;;;;;;;6.63;2.72;;;;;;;5.44;100.00;98962.34;676783;29;1667;-82
2022/04/08 00:11:36;;;;;;;7.78;2.70;;;;;;;5.35;100.00;98981.47;676385;29;2361;-81
2022/04/08 00:11:57;;;;;;;5.17;2.40;;;;;;;5.40;100.00;98956.38;677390;29;1392;-82
2022/04/08 00:12:17;;;;;;;5.78;2.90;;;;;;;5.44;100.00;98959.75;676816;29;1689;-81
2022/04/08 00:12:38;;;;;;;7.67;2.70;;;;;;;5.43;100.00;98978.81;677739;28;1326;-83
2022/04/08 00:12:58;;;;;;;7.70;2.60;;;;;;;5.44;100.00;98991.75;678160;28;1271;-82
2022/04/08 00:13:19;;;;;;;7.17;2.60;;;;;;;5.43;100.00;98971.03;679215;28;1271;-81
2022/04/08 00:13:39;;;;;;;6.40;2.60;;;;;;;5.36;100.00;98967.63;675918;29;4479;-82
2022/04/08 00:14:00;;;;;;;6.03;2.67;;;;;;;5.39;100.00;98965.00;676032;29;1242;-82
2022/04/08 00:14:21;;;;;;;5.93;2.72;;;;;;;5.40;100.00;98969.31;678538;29;1923;-82
2022/04/08 00:14:41;;;;;;;7.30;2.60;;;;;;;5.35;100.00;98970.25;676323;29;1399;-82
2022/04/08 00:15:03;;;;;;;6.77;2.60;;;;;;;5.34;100.00;98968.53;678990;28;2051;-82
2022/04/08 00:15:26;;;;;;;5.82;2.33;;;;;;;5.34;100.00;98958.16;681908;28;1162;-81
2022/04/08 00:15:47;;;;;;;8.13;2.53;;;;;;;5.31;100.00;98964.22;681450;28;976;-82
2022/04/08 00:16:08;;;;;;;8.80;2.80;;;;;;;5.38;100.00;98963.28;682674;28;1298;-81
2022/04/08 00:16:29;;;;;;;6.60;2.83;;;;;;;5.37;100.00;98971.06;682571;28;4321;-82
2022/04/08 00:16:55;;;;;;;7.43;2.70;;;;;;;5.35;100.00;98968.50;682999;28;1369;-82
2022/04/08 00:17:15;;;;;;;6.60;2.60;;;;;;;5.34;100.00;98981.47;686088;28;1833;-81
2022/04/08 00:17:38;;;;;;;7.43;2.60;;;;;;;5.31;100.00;98965.97;686914;28;838;-82
2022/04/08 00:17:58;;;;;;;5.88;2.67;;;;;;;5.28;100.00;98967.72;679819;28;1272;-82
2022/04/08 00:18:19;;;;;;;7.50;2.83;;;;;;;5.30;100.00;98972.88;680880;28;1510;-81
2022/04/08 00:18:40;;;;;;;6.53;2.63;;;;;;;5.30;100.00;98967.69;676750;29;1611;-82
2022/04/08 00:19:01;;;;;;;6.72;2.72;;;;;;;5.29;100.00;98969.44;681274;28;2041;-82
2022/04/08 00:19:22;;;;;;;6.53;2.78;;;;;;;5.36;100.00;98982.31;680330;28;4374;-82
2022/04/08 00:19:42;;;;;;;6.95;2.80;;;;;;;5.36;100.00;98961.56;684025;28;5079;-82
2022/04/08 00:20:03;;;;;;;6.40;3.00;;;;;;;5.31;100.00;98966.81;687899;28;1439;-81
2022/04/08 00:20:24;;;;;;;5.84;2.60;;;;;;;5.34;100.00;98965.94;687577;28;1402;-82
2022/04/08 00:20:45;;;;;;;6.47;2.60;;;;;;;5.37;100.00;98969.38;681928;28;1343;-82
2022/04/08 00:21:08;;;;;;;6.73;2.97;;;;;;;5.30;100.00;98972.88;679947;28;1317;-81
2022/04/08 00:21:29;;;;;;;9.32;3.00;;;;;;;5.33;100.00;99009.13;677474;28;2083;-81
2022/04/08 00:21:49;;;;;;;7.68;2.83;;;;;;;5.29;100.00;98976.34;680154;28;1608;-82
2022/04/08 00:22:10;;;;;;;7.20;3.10;;;;;;;5.22;100.00;98991.09;680783;28;1461;-82
2022/04/08 00:22:32;;;;;;;7.03;2.80;;;;;;;5.23;100.00;98984.19;685049;28;4316;-82
2022/04/08 00:22:55;;;;;;;7.68;3.00;;;;;;;5.29;100.00;98977.22;682285;28;1255;-83
2022/04/08 00:23:16;;;;;;;5.53;2.63;;;;;;;5.29;100.00;98968.59;676694;29;1579;-82
2022/04/08 00:23:36;;;;;;;4.90;2.88;;;;;;;5.32;100.00;99003.94;675185;29;1569;-81
2022/04/08 00:23:57;;;;;;;5.28;2.83;;;;;;;5.30;100.00;99003.97;679937;28;1449;-81
2022/04/08 00:24:18;;;;;;;4.77;2.60;;;;;;;5.32;100.00;98994.47;680356;28;1437;-81
2022/04/08 00:24:38;;;;;;;6.75;2.40;;;;;;;5.34;100.00;98992.69;680463;28;1644;-81
2022/04/08 00:24:59;;;;;;;4.75;2.40;;;;;;;5.39;100.00;98985.75;682156;28;3342;-83
2022/04/08 00:25:19;;;;;;;5.30;2.60;;;;;;;5.39;100.00;98975.38;684056;28;1354;-81
2022/04/08 00:25:40;;;;;;;6.78;2.60;;;;;;;5.45;100.00;98982.22;676507;28;4466;-82
2022/04/08 00:26:00;;;;;;;6.33;2.70;;;;;;;5.39;100.00;98971.94;678060;28;1517;-79
2022/04/08 00:26:21;;;;;;;6.00;2.50;;;;;;;5.45;100.00;98975.31;683831;28;1230;-81
2022/04/08 00:26:42;;;;;;;5.82;2.33;;;;;;;5.41;100.00;98972.75;679121;28;1350;-82
2022/04/08 00:27:05;;;;;;;7.28;2.78;;;;;;;5.35;100.00;98970.25;681366;28;1390;-81
2022/04/08 00:27:25;;;;;;;6.45;2.70;;;;;;;5.30;100.00;99011.75;679680;28;1594;-82
2022/04/08 00:27:46;;;;;;;7.23;2.60;;;;;;;5.33;100.00;98979.75;678562;28;1390;-82
2022/04/08 00:28:06;;;;;;;5.85;2.50;;;;;;;5.32;100.00;98985.81;677339;29;1450;-82
2022/04/08 00:28:27;;;;;;;5.57;2.60;;;;;;;5.37;100.00;99008.25;684814;28;4370;-82
2022/04/08 00:28:47;;;;;;;6.30;2.60;;;;;;;5.31;100.00;98974.59;681969;28;1293;-82
2022/04/08 00:29:08;;;;;;;6.20;2.78;;;;;;;5.36;100.00;98980.59;684815;28;2478;-82
2022/04/08 00:29:29;;;;;;;6.53;2.80;;;;;;;5.36;100.00;98988.38;682711;28;1444;-82
2022/04/08 00:29:49;;;;;;;6.20;2.63;;;;;;;5.40;100.00;98984.88;680034;28;1380;-82
2022/04/08 00:30:10;;;;;;;7.18;2.80;;;;;;;5.41;100.00;99004.75;679928;28;1108;-82
2022/04/08 00:30:31;;;;;;;5.40;2.70;;;;;;;5.42;100.00;98975.34;677432;29;1348;-82
2022/04/08 00:30:51;;;;;;;5.82;2.60;;;;;;;5.39;100.00;99000.44;677484;29;1419;-82
2022/04/08 00:31:12;;;;;;;6.82;2.40;;;;;;;5.35;100.00;98983.22;678471;28;1379;-81
2022/04/08 00:31:32;;;;;;;6.05;2.40;;;;;;;5.30;100.00;99003.97;682167;28;4378;-82
2022/04/08 00:31:57;;;;;;;5.13;2.60;;;;;;;5.25;100.00;98990.22;680778;28;1383;-82
2022/04/08 00:32:18;;;;;;;5.88;2.65;;;;;;;5.29;100.00;98977.22;683456;28;1359;-82
2022/04/08 00:32:39;;;;;;;5.53;2.40;;;;;;;5.33;100.00;98996.19;680652;28;1455;-82
2022/04/08 00:32:59;;;;;;;6.35;2.40;;;;;;;5.27;100.00;98993.63;675410;29;1550;-81
2022/04/08 00:33:20;;;;;;;5.00;2.20;;;;;;;5.22;100.00;98985.91;675267;29;1637;-82
2022/04/08 00:33:40;;;;;;;4.95;2.30;;;;;;;5.28;100.00;98983.25;677095;29;1443;-82
2022/04/08 00:34:03;;;;;;;5.20;2.50;;;;;;;5.23;100.00;98992.81;679454;28;1431;-82
2022/04/08 00:34:27;;;;;;;5.55;2.47;;;;;;;5.34;100.00;99005.66;682392;28;4307;-82
2022/04/08 00:34:48;;;;;;;5.47;2.53;;;;;;;5.37;100.00;99015.13;678508;28;2091;-82
2022/04/08 00:35:09;;;;;;;5.80;2.63;;;;;;;5.31;100.00;99010.88;680348;28;1233;-81
2022/04/08 00:35:29;;;;;;;7.00;2.53;;;;;;;5.26;100.00;99003.16;678940;28;1637;-82
2022/04/08 00:35:50;;;;;;;6.38;2.47;;;;;;;5.24;100.00;98999.69;681214;28;1423;-82
2022/04/08 00:36:12;;;;;;;5.77;2.50;;;;;;;5.19;100.00;98983.38;678401;28;1418;-82
2022/04/08 00:36:33;;;;;;;6.63;2.60;;;;;;;5.18;100.00;99017.03;681644;28;1948;-82
2022/04/08 00:36:56;;;;;;;5.63;2.57;;;;;;;5.23;100.00;99007.50;682734;28;1481;-81
2022/04/08 00:37:16;;;;;;;5.35;2.70;;;;;;;5.29;100.00;98991.91;677393;29;1381;-82
2022/04/08 00:37:39;;;;;;;5.30;2.60;;;;;;;5.24;100.00;99017.84;676810;28;4354;-82
2022/04/08 00:38:00;;;;;;;4.75;2.47;;;;;;;5.32;100.00;98991.00;677648;28;1305;-82
2022/04/08 00:38:20;;;;;;;4.18;2.42;;;;;;;5.33;100.00;99009.13;678330;28;1253;-82
2022/04/08 00:38:41;;;;;;;4.72;2.55;;;;;;;5.34;100.00;98992.69;678679;28;1354;-82
2022/04/08 00:39:01;;;;;;;4.50;2.57;;;;;;;5.31;100.00;98992.72;679057;28;2145;-82
2022/04/08 00:39:23;;;;;;;4.60;2.63;;;;;;;5.37;100.00;98989.22;677607;28;1168;-81
2022/04/08 00:39:43;;;;;;;7.78;2.80;;;;;;;5.28;100.00;99009.16;678180;28;1744;-81
2022/04/08 00:40:04;;;;;;;6.53;2.60;;;;;;;5.27;100.00;98996.22;681782;28;1422;-82
2022/04/08 00:40:24;;;;;;;5.50;2.50;;;;;;;5.28;100.00;98993.63;685014;28;4338;-81
2022/04/08 00:40:45;;;;;;;4.93;2.50;;;;;;;5.24;100.00;98993.69;680460;28;1465;-81
2022/04/08 00:41:05;;;;;;;5.30;2.40;;;;;;;5.30;100.00;98988.41;679893;28;1194;-82
2022/04/08 00:41:26;;;;;;;4.30;2.30;;;;;;;5.24;100.00;98993.69;680262;28;1611;-81
2022/04/08 00:41:46;;;;;;;4.47;2.40;;;;;;;5.21;100.00;98984.19;679078;28;2416;-82
2022/04/08 00:42:07;;;;;;;5.57;2.45;;;;;;;5.23;100.00;98997.13;678961;28;4129;-81
2022/04/08 00:42:27;;;;;;;5.22;2.40;;;;;;;5.21;100.00;99002.34;678687;28;1447;-81
2022/04/08 00:42:48;;;;;;;5.50;2.47;;;;;;;5.28;100.00;98996.22;681099;28;1446;-81
2022/04/08 00:43:12;;;;;;;5.00;2.40;;;;;;;5.34;100.00;98994.44;681415;28;1538;-81
2022/04/08 00:43:34;;;;;;;7.25;2.78;;;;;;;5.28;100.00;98998.81;676403;28;4386;-82
2022/04/08 00:43:55;;;;;;;6.45;2.75;;;;;;;5.22;100.00;99003.19;675925;29;1588;-82
2022/04/08 00:44:15;;;;;;;4.13;2.40;;;;;;;5.26;100.00;98997.09;676832;29;2136;-82
2022/04/08 00:44:36;;;;;;;6.18;2.70;;;;;;;5.30;100.00;99011.75;678324;28;1765;-82
2022/04/08 00:44:57;;;;;;;5.45;2.70;;;;;;;5.19;100.00;99008.41;675529;29;2123;-81
2022/04/08 00:45:18;;;;;;;4.72;2.42;;;;;;;5.13;100.00;98998.09;680209;28;1260;-82
2022/04/08 00:45:39;;;;;;;6.07;2.55;;;;;;;5.07;100.00;99012.81;676617;28;1156;-81
2022/04/08 00:46:00;;;;;;;6.93;2.80;;;;;;;5.10;100.00;99007.59;675162;28;1501;-81
2022/04/08 00:46:20;;;;;;;5.35;2.60;;;;;;;5.16;100.00;99000.66;679595;28;1719;-82
2022/04/08 00:46:43;;;;;;;5.70;2.40;;;;;;;5.11;100.00;98998.97;678571;28;4267;-82
2022/04/08 00:47:04;;;;;;;5.82;2.50;;;;;;;5.10;100.00;99002.44;682346;28;1342;-81
2022/04/08 00:47:25;;;;;;;5.18;2.60;;;;;;;5.02;100.00;99000.78;679765;28;1387;-81
2022/04/08 00:47:45;;;;;;;5.20;2.60;;;;;;;4.99;100.00;99004.25;677086;29;1571;-81
2022/04/08 00:48:07;;;;;;;6.15;2.63;;;;;;;5.04;100.00;98994.72;678146;28;1273;-82
2022/04/08 00:48:28;;;;;;;5.55;2.47;;;;;;;5.00;100.00;99005.97;681280;28;1101;-81
2022/04/08 00:48:48;;;;;;;5.80;2.20;;;;;;;4.94;100.00;99000.84;676652;29;1540;-81
2022/04/08 00:49:10;;;;;;;4.33;2.37;;;;;;;4.93;100.00;98999.16;681195;28;1055;-81
2022/04/08 00:49:32;;;;;;;5.40;2.50;;;;;;;4.91;100.00;99009.50;681350;28;4303;-80
2022/04/08 00:49:53;;;;;;;5.18;2.40;;;;;;;4.90;100.00;99006.91;682361;28;1481;-81
2022/04/08 00:50:14;;;;;;;5.13;2.55;;;;;;;4.92;100.00;99000.00;680102;28;2356;-80
2022/04/08 00:50:39;;;;;;;3.70;2.30;;;;;;;5.00;100.00;99016.34;683854;28;1838;-80
2022/04/08 00:51:00;;;;;;;5.68;2.60;;;;;;;4.95;100.00;98998.22;682095;28;1338;-81
2022/04/08 00:51:22;;;;;;;4.50;2.40;;;;;;;4.98;100.00;99010.31;679575;28;983;-80
2022/04/08 00:51:42;;;;;;;4.90;2.38;;;;;;;4.95;100.00;99013.78;681162;28;1761;-81
2022/04/08 00:52:04;;;;;;;5.07;2.43;;;;;;;4.99;100.00;99008.59;676292;29;1220;-81
2022/04/08 00:52:24;;;;;;;5.97;2.20;;;;;;;4.97;100.00;99008.59;672343;29;4363;-81
2022/04/08 00:52:46;;;;;;;4.13;2.03;;;;;;;4.94;100.00;99009.50;673239;29;1294;-81
2022/04/08 00:53:07;;;;;;;4.60;2.30;;;;;;;4.95;100.00;99013.78;679193;28;1375;-81
2022/04/08 00:53:30;;;;;;;5.25;2.40;;;;;;;4.97;100.00;99003.44;678426;28;1401;-81
2022/04/08 00:53:51;;;;;;;5.22;2.30;;;;;;;4.97;100.00;99020.69;678669;28;1343;-80
2022/04/08 00:54:12;;;;;;;4.13;2.33;;;;;;;5.03;100.00;99018.91;679407;28;2198;-81
2022/04/08 00:54:33;;;;;;;4.30;2.17;;;;;;;5.07;100.00;99015.41;683265;28;1985;-81
2022/04/08 00:54:54;;;;;;;4.72;2.15;;;;;;;5.01;100.00;99018.06;681018;28;1402;-81
2022/04/08 00:55:14;;;;;;;5.00;1.80;;;;;;;4.95;100.00;99012.94;680027;28;1576;-81
2022/04/08 00:55:36;;;;;;;4.28;1.88;;;;;;;4.90;100.00;99018.16;675669;29;4325;-82
2022/04/08 00:55:57;;;;;;;4.63;2.13;;;;;;;4.99;100.00;99014.63;675265;29;1622;-80
2022/04/08 00:56:21;;;;;;;5.03;2.03;;;;;;;4.99;100.00;99008.59;676844;29;1258;-81
2022/04/08 00:56:41;;;;;;;6.57;2.10;;;;;;;4.97;100.00;99012.91;680194;28;1361;-81
2022/04/08 00:57:02;;;;;;;4.90;1.90;;;;;;;5.02;100.00;99008.56;679754;28;2230;-81
2022/04/08 00:57:23;;;;;;;3.85;1.70;;;;;;;5.00;100.00;99010.28;682207;28;1528;-80
2022/04/08 00:57:43;;;;;;;5.47;1.80;;;;;;;4.94;100.00;99013.78;682271;28;1631;-80
2022/04/08 00:58:04;;;;;;;5.47;1.80;;;;;;;4.89;100.00;99011.25;676048;29;1380;-81
2022/04/08 00:58:26;;;;;;;4.28;1.73;;;;;;;4.85;100.00;99013.88;675978;29;4363;-81
2022/04/08 00:58:46;;;;;;;3.28;1.50;;;;;;;4.87;100.00;99006.94;676884;29;1368;-80
2022/04/08 00:59:07;;;;;;;4.10;1.70;;;;;;;4.89;100.00;99021.59;677527;29;1362;-81
2022/04/08 00:59:28;;;;;;;4.07;1.70;;;;;;;4.85;100.00;99024.25;678556;28;2043;-82
2022/04/08 00:59:49;;;;;;;4.93;1.70;;;;;;;4.90;100.00;99025.94;683461;28;1684;-80
2022/04/08 01:00:10;;;;;;;4.43;1.80;;;;;;;4.93;100.00;99019.88;685799;28;1279;-81
2022/04/08 01:00:36;;;;;;;5.43;1.83;;;;;;;4.92;100.00;99020.72;683459;28;1564;-81
2022/04/08 01:00:57;;;;;;;3.97;1.60;;;;;;;4.96;100.00;99012.06;683019;28;1195;-81
2022/04/08 01:01:18;;;;;;;4.85;1.63;;;;;;;4.93;100.00;99015.53;680109;28;1289;-81
2022/04/08 01:01:39;;;;;;;4.63;1.80;;;;;;;4.90;100.00;99027.63;678125;28;4314;-81
2022/04/08 01:01:59;;;;;;;4.40;1.77;;;;;;;4.91;100.00;99022.44;681767;28;1304;-81
2022/04/08 01:02:22;;;;;;;4.60;2.00;;;;;;;4.86;100.00;99031.13;680629;29;2235;-81
2022/04/08 01:02:43;;;;;;;6.20;1.83;;;;;;;4.82;100.00;99022.53;682340;28;1470;-81
2022/04/08 01:03:04;;;;;;;5.10;1.73;;;;;;;4.84;100.00;99023.38;679610;29;1139;-81
2022/04/08 01:03:25;;;;;;;6.60;1.77;;;;;;;4.83;100.00;99024.25;683183;28;1616;-81
2022/04/08 01:03:46;;;;;;;5.57;1.50;;;;;;;4.81;100.00;99038.09;677830;28;1481;-81
2022/04/08 01:04:07;;;;;;;5.43;1.70;;;;;;;4.79;100.00;99032.91;678124;29;1439;-81
2022/04/08 01:04:27;;;;;;;5.90;1.60;;;;;;;4.77;100.00;99030.31;679116;28;4334;-81
2022/04/08 01:04:48;;;;;;;5.57;1.57;;;;;;;4.80;100.00;99018.22;674297;29;1329;-81
2022/04/08 01:05:09;;;;;;;6.88;1.80;;;;;;;4.76;100.00;99023.44;677245;29;1432;-81
2022/04/08 01:05:31;;;;;;;6.25;1.77;;;;;;;4.75;100.00;99036.41;679523;29;1360;-82
2022/04/08 01:05:51;;;;;;;5.15;1.55;;;;;;;4.81;100.00;99036.34;680011;28;1986;-81
2022/04/08 01:06:11;;;;;;;4.03;1.60;;;;;;;4.83;100.00;99028.56;675929;29;2083;-81
2022/04/08 01:06:32;;;;;;;4.45;1.60;;;;;;;4.81;100.00;99030.31;677615;29;1424;-81
2022/04/08 01:06:54;;;;;;;4.47;1.43;;;;;;;4.93;100.00;99032.81;679531;28;1255;-81
2022/04/08 01:07:14;;;;;;;5.25;1.58;;;;;;;4.87;100.00;99033.69;683226;28;1734;-82
2022/04/08 01:07:35;;;;;;;5.32;1.85;;;;;;;4.92;100.00;99038.84;682690;28;4384;-81
2022/04/08 01:07:55;;;;;;;5.23;1.63;;;;;;;4.87;100.00;99049.22;683265;28;1784;-81
2022/04/08 01:08:17;;;;;;;5.10;1.50;;;;;;;4.88;100.00;99037.16;680787;28;1248;-81
2022/04/08 01:08:38;;;;;;;5.00;1.40;;;;;;;4.81;100.00;99036.34;677551;29;1403;-81
2022/04/08 01:09:00;;;;;;;5.40;1.48;;;;;;;4.78;100.00;99036.38;676358;29;2084;-81
2022/04/08 01:09:21;;;;;;;4.43;1.40;;;;;;;4.75;100.00;99045.00;679332;29;993;-81
2022/04/08 01:09:42;;;;;;;4.60;1.45;;;;;;;4.71;100.00;99038.13;682558;28;1474;-81
2022/04/08 01:10:02;;;;;;;3.85;1.50;;;;;;;4.75;100.00;99033.81;682756;28;1505;-81
2022/04/08 01:10:23;;;;;;;4.80;1.70;;;;;;;4.71;100.00;99035.56;682864;28;4343;-81
2022/04/08 01:10:44;;;;;;;5.22;1.65;;;;;;;4.69;100.00;99045.03;684179;28;959;-81
2022/04/08 01:11:04;;;;;;;5.00;1.75;;;;;;;4.68;100.00;99039.88;684774;28;1361;-81
2022/04/08 01:11:25;;;;;;;6.45;1.70;;;;;;;4.70;100.00;99039.00;684245;28;1274;-81
2022/04/08 01:11:45;;;;;;;4.30;1.50;;;;;;;4.82;100.00;99034.59;681341;28;2343;-81
2022/04/08 01:12:06;;;;;;;4.72;1.38;;;;;;;4.81;100.00;99036.34;684832;28;1160;-80
2022/04/08 01:12:26;;;;;;;4.72;1.52;;;;;;;4.83;100.00;99041.50;678801;28;1112;-81
2022/04/08 01:12:49;;;;;;;5.00;1.67;;;;;;;4.90;100.00;99041.47;682424;28;1254;-81
2022/04/08 01:13:09;;;;;;;4.95;1.67;;;;;;;4.93;100.00;99044.03;682260;28;1082;-82
2022/04/08 01:13:30;;;;;;;5.17;1.50;;;;;;;4.86;100.00;99044.06;681720;28;4318;-81
2022/04/08 01:13:51;;;;;;;5.07;1.60;;;;;;;4.81;100.00;99046.69;682137;28;2067;-81
2022/04/08 01:14:14;;;;;;;5.00;1.58;;;;;;;4.80;100.00;99039.78;681897;28;1094;-81
2022/04/08 01:14:38;;;;;;;4.40;1.42;;;;;;;4.78;100.00;99046.72;681632;28;2183;-81
2022/04/08 01:14:59;;;;;;;4.38;1.40;;;;;;;4.75;100.00;99037.25;688425;28;1038;-81
2022/04/08 01:15:23;;;;;;;4.05;1.33;;;;;;;4.75;100.00;99044.16;686530;28;1163;-81
2022/04/08 01:15:44;;;;;;;4.35;1.30;;;;;;;4.74;100.00;99051.06;684152;28;1389;-81
2022/04/08 01:16:06;;;;;;;5.72;1.40;;;;;;;4.76;100.00;99049.34;684151;28;2581;-81
2022/04/08 01:16:26;;;;;;;5.63;1.50;;;;;;;4.73;100.00;99054.50;680010;28;4369;-81
2022/04/08 01:16:46;;;;;;;5.82;1.50;;;;;;;4.70;100.00;99059.72;678163;28;1106;-81
2022/04/08 01:17:07;;;;;;;5.00;1.43;;;;;;;4.75;100.00;99057.13;677399;29;1251;-81
2022/04/08 01:17:27;;;;;;;5.23;1.60;;;;;;;4.69;100.00;99060.56;680698;28;1242;-81
2022/04/08 01:17:48;;;;;;;4.88;1.50;;;;;;;4.71;100.00;99074.38;681361;28;1554;-81
2022/04/08 01:18:10;;;;;;;3.67;1.40;;;;;;;4.68;100.00;99063.19;679545;28;1587;-81
2022/04/08 01:18:30;;;;;;;3.60;1.55;;;;;;;4.66;100.00;99059.75;674542;29;1752;-80
2022/04/08 01:18:50;;;;;;;6.23;1.70;;;;;;;4.62;100.00;99061.50;677451;29;2042;-80
2022/04/08 01:19:11;;;;;;;4.83;1.20;;;;;;;4.64;100.00;99064.06;680803;28;1530;-80
2022/04/08 01:19:31;;;;;;;5.40;1.40;;;;;;;4.58;100.00;99076.19;680032;28;4329;-80
2022/04/08 01:19:52;;;;;;;7.97;2.00;;;;;;;4.60;100.00;99058.91;680970;28;1239;-80
2022/04/08 01:20:13;;;;;;;7.05;1.90;;;;;;;4.65;100.00;99064.06;679864;28;1431;-80
2022/04/08 01:20:34;;;;;;;4.78;1.40;;;;;;;4.66;100.00;99073.53;682665;28;1749;-81
2022/04/08 01:20:55;;;;;;;4.38;1.42;;;;;;;4.68;100.00;99066.66;680904;28;1433;-81
2022/04/08 01:21:15;;;;;;;5.50;1.53;;;;;;;4.63;100.00;99075.31;685037;28;1188;-82
2022/04/08 01:21:35;;;;;;;5.95;1.50;;;;;;;4.69;100.00;99077.84;681914;28;2148;-81
2022/04/08 01:21:56;;;;;;;6.30;1.50;;;;;;;4.65;100.00;99077.00;683827;28;1579;-81
2022/04/08 01:22:17;;;;;;;5.43;1.30;;;;;;;4.65;100.00;99078.72;684757;28;1282;-81
2022/04/08 01:22:38;;;;;;;5.43;1.48;;;;;;;4.63;100.00;99088.25;683275;28;4335;-81
2022/04/08 01:22:59;;;;;;;5.22;1.60;;;;;;;4.66;100.00;99083.91;682826;28;1449;-81
2022/04/08 01:23:19;;;;;;;6.37;1.50;;;;;;;4.63;100.00;99083.06;681998;28;1210;-80
2022/04/08 01:23:46;;;;;;;5.05;1.30;;;;;;;4.71;100.00;99071.78;682527;28;1545;-81
2022/04/08 01:24:13;;;;;;;4.93;1.40;;;;;;;4.80;100.00;99082.97;679179;28;1395;-82
2022/04/08 01:24:36;;;;;;;3.83;1.20;;;;;;;4.69;100.00;99077.84;678521;29;1308;-81
2022/04/08 01:25:14;;;;;;;4.30;1.38;;;;;;;4.59;100.00;99083.06;681299;28;1563;-80
2022/04/08 01:25:35;;;;;;;5.80;1.30;;;;;;;4.63;100.00;99089.09;681000;28;4275;-81
2022/04/08 01:25:55;;;;;;;5.30;1.53;;;;;;;4.63;100.00;99083.06;681160;28;1304;-80
2022/04/08 01:26:16;;;;;;;4.87;1.60;;;;;;;4.62;100.00;99074.44;676534;29;1183;-81
2022/04/08 01:26:38;;;;;;;5.65;1.60;;;;;;;4.68;100.00;99086.47;678057;28;1542;-81
2022/04/08 01:26:59;;;;;;;6.65;1.52;;;;;;;4.69;100.00;99081.28;676184;29;1025;-81
2022/04/08 01:27:20;;;;;;;7.37;1.50;;;;;;;4.69;100.00;99083.88;676372;29;1247;-81
2022/04/08 01:27:41;;;;;;;6.53;1.42;;;;;;;4.66;100.00;99078.72;681385;28;1146;-81
2022/04/08 01:28:01;;;;;;;4.60;1.50;;;;;;;4.62;100.00;99086.53;680087;28;1869;-80
2022/04/08 01:28:25;;;;;;;4.40;1.40;;;;;;;4.65;100.00;99081.31;678229;29;4677;-81
2022/04/08 01:28:45;;;;;;;4.22;1.40;;;;;;;4.62;100.00;99079.59;681818;28;1428;-81
2022/04/08 01:29:09;;;;;;;5.88;1.77;;;;;;;4.68;100.00;99077.00;682214;28;1183;-81
2022/04/08 01:29:29;;;;;;;6.07;1.80;;;;;;;4.65;100.00;99087.34;684190;28;1249;-81
2022/04/08 01:29:49;;;;;;;5.10;1.40;;;;;;;4.62;100.00;99074.44;680287;28;1345;-80
2022/04/08 01:30:13;;;;;;;5.05;1.77;;;;;;;4.67;100.00;99089.94;677740;29;1011;-80
2022/04/08 01:30:34;;;;;;;5.57;1.50;;;;;;;4.67;100.00;99088.22;682982;28;1277;-81
2022/04/08 01:30:55;;;;;;;5.27;1.40;;;;;;;4.71;100.00;99081.31;683805;28;1650;-81
2022/04/08 01:31:15;;;;;;;5.03;1.50;;;;;;;4.70;100.00;99090.78;685284;28;2121;-80
2022/04/08 01:31:36;;;;;;;3.92;1.50;;;;;;;4.70;100.00;99090.78;677704;28;4393;-81
2022/04/08 01:31:56;;;;;;;4.53;1.50;;;;;;;4.66;100.00;99086.47;679355;28;1216;-80
2022/04/08 01:32:16;;;;;;;6.23;1.60;;;;;;;4.64;100.00;99085.66;683739;28;1231;-81
2022/04/08 01:32:37;;;;;;;6.67;1.50;;;;;;;4.72;100.00;99085.59;683269;28;1820;-81
2022/04/08 01:32:57;;;;;;;5.15;1.55;;;;;;;4.67;100.00;99085.63;682775;28;1205;-81
2022/04/08 01:33:18;;;;;;;5.00;1.60;;;;;;;4.69;100.00;99080.44;679131;28;1205;-80
2022/04/08 01:33:38;;;;;;;5.60;1.50;;;;;;;4.75;100.00;99088.19;681951;28;1969;-81
2022/04/08 01:33:58;;;;;;;5.40;1.60;;;;;;;4.68;100.00;99084.75;682047;28;1213;-81
2022/04/08 01:34:19;;;;;;;4.93;1.55;;;;;;;4.72;100.00;99088.16;680651;28;2039;-81
2022/04/08 01:34:39;;;;;;;5.53;1.30;;;;;;;4.67;100.00;99088.22;673442;29;4341;-81
2022/04/08 01:35:00;;;;;;;5.53;1.50;;;;;;;4.72;100.00;99083.88;677796;29;1309;-81
2022/04/08 01:35:20;;;;;;;5.57;1.42;;;;;;;4.69;100.00;99083.03;678095;29;1555;-81
2022/04/08 01:35:40;;;;;;;4.83;1.43;;;;;;;4.72;100.00;99083.00;674591;29;1690;-81
2022/04/08 01:36:01;;;;;;;5.23;1.47;;;;;;;4.68;100.00;99084.75;675189;29;1503;-80
2022/04/08 01:36:24;;;;;;;6.83;1.60;;;;;;;4.71;100.00;99092.50;677170;29;2001;-80
2022/04/08 01:36:44;;;;;;;3.97;1.40;;;;;;;4.76;100.00;99095.94;678997;28;1257;-81
2022/04/08 01:37:04;;;;;;;6.05;1.50;;;;;;;4.70;100.00;99092.50;679763;29;1276;-81
2022/04/08 01:37:25;;;;;;;8.77;1.73;;;;;;;4.71;100.00;99087.31;679841;28;4382;-80
2022/04/08 01:37:45;;;;;;;7.88;1.60;;;;;;;4.77;100.00;99102.81;686008;28;1298;-81
2022/04/08 01:38:06;;;;;;;5.73;1.60;;;;;;;4.73;100.00;99090.75;682519;28;1945;-81
2022/04/08 01:38:26;;;;;;;6.22;1.70;;;;;;;4.69;100.00;99089.03;682405;28;4079;-81
2022/04/08 01:38:46;;;;;;;6.63;1.77;;;;;;;4.63;100.00;99107.22;680253;28;1635;-81
2022/04/08 01:39:07;;;;;;;5.53;1.42;;;;;;;4.61;100.00;99101.22;677043;29;3302;-81
2022/04/08 01:39:27;;;;;;;4.80;1.40;;;;;;;4.64;100.00;99103.78;675030;29;2244;-80
2022/04/08 01:39:47;;;;;;;5.97;1.50;;;;;;;4.67;100.00;99101.16;675606;29;1400;-80
2022/04/08 01:40:09;;;;;;;5.75;1.42;;;;;;;4.68;100.00;99097.72;675095;29;1685;-81
2022/04/08 01:40:29;;;;;;;6.00;1.60;;;;;;;4.63;100.00;99104.63;675315;29;4364;-81
2022/04/08 01:40:50;;;;;;;5.85;1.55;;;;;;;4.59;100.00;99098.59;675843;29;1769;-81
2022/04/08 01:41:10;;;;;;;5.37;1.50;;;;;;;4.61;100.00;99106.38;676427;29;1509;-81
2022/04/08 01:41:31;;;;;;;6.33;1.70;;;;;;;4.70;100.00;99095.94;679813;28;1460;-81
2022/04/08 01:41:51;;;;;;;6.20;1.70;;;;;;;4.71;100.00;99096.84;679344;28;1494;-81